createdAt,value
2023-05-05T00:02:00.646Z,10.00
2023-05-05T00:04:28.651Z,11.07
2023-05-05T00:06:57.311Z,11.50
2023-05-05T00:09:25.194Z,11.20
2023-05-05T00:11:54.558Z,11.33
2023-05-05T00:14:22.439Z,11.07
2023-05-05T00:16:50.338Z,14.20
2023-05-05T00:19:18.158Z,14.27
2023-05-05T00:21:46.067Z,13.60
2023-05-05T00:24:13.931Z,14.07
2023-05-05T00:26:41.847Z,14.00
2023-05-05T00:29:11.311Z,12.80
2023-05-05T00:31:39.290Z,13.90
2023-05-05T00:34:07.351Z,14.17
2023-05-05T00:36:35.192Z,13.93
2023-05-05T00:39:03.107Z,13.97
2023-05-05T00:41:31.473Z,15.30
2023-05-05T00:43:59.338Z,13.90
2023-05-05T00:46:31.424Z,13.30
2023-05-05T00:48:59.760Z,15.83
2023-05-05T00:51:28.468Z,17.40
2023-05-05T00:53:56.793Z,13.57
2023-05-05T00:56:27.281Z,15.10
2023-05-05T00:58:55.450Z,14.10
2023-05-05T01:01:23.969Z,14.37
2023-05-05T01:03:53.465Z,15.67
2023-05-05T01:06:36.484Z,14.50
2023-05-05T01:09:12.877Z,15.03
2023-05-05T01:11:47.119Z,14.67
2023-05-05T01:14:18.559Z,14.70
2023-05-05T01:16:57.051Z,14.73
2023-05-05T01:20:03.040Z,14.50
2023-05-05T01:22:38.855Z,14.67
2023-05-05T01:25:26.113Z,14.93
2023-05-05T01:28:15.088Z,16.03
2023-05-05T01:31:06.754Z,15.13
2023-05-05T01:33:42.884Z,17.47
2023-05-05T01:36:22.502Z,13.90
2023-05-05T01:38:56.457Z,15.20
2023-05-05T01:41:29.030Z,14.57
2023-05-05T01:44:00.790Z,15.33
2023-05-05T01:46:29.287Z,15.00
2023-05-05T01:48:59.665Z,14.67
2023-05-05T01:51:29.420Z,15.43
2023-05-05T01:54:00.725Z,15.10
2023-05-05T01:56:32.271Z,16.10
2023-05-05T01:59:01.504Z,15.90
2023-05-05T02:01:30.523Z,15.40
2023-05-05T02:04:00.628Z,14.80
2023-05-05T02:06:32.625Z,14.33
2023-05-05T02:09:04.288Z,16.47
2023-05-05T02:11:32.566Z,15.20
2023-05-05T02:14:02.892Z,14.93
2023-05-05T02:16:31.103Z,14.87
2023-05-05T02:19:04.939Z,15.50
2023-05-05T02:21:33.663Z,15.73
2023-05-05T02:24:02.128Z,15.87
2023-05-05T02:26:34.034Z,15.03
2023-05-05T02:29:07.241Z,14.07
2023-05-05T02:31:40.347Z,15.17
2023-05-05T02:34:11.015Z,16.70
2023-05-05T02:36:40.751Z,14.93
2023-05-05T02:39:14.712Z,14.80
2023-05-05T02:41:46.011Z,15.33
2023-05-05T02:44:25.630Z,14.30
2023-05-05T02:46:55.569Z,15.10
2023-05-05T02:49:25.941Z,15.10
2023-05-05T02:51:58.903Z,14.80
2023-05-05T02:54:33.690Z,13.57
2023-05-05T02:57:05.202Z,13.77
2023-05-05T02:59:47.274Z,13.00
2023-05-05T03:02:22.869Z,13.67
2023-05-05T03:04:57.322Z,14.53
2023-05-05T03:07:31.647Z,14.00
2023-05-05T03:10:08.528Z,13.40
2023-05-05T03:12:46.248Z,14.23
2023-05-05T03:15:23.299Z,13.70
2023-05-05T03:17:53.113Z,14.17
2023-05-05T03:20:23.471Z,13.37
2023-05-05T03:22:52.211Z,13.10
2023-05-05T03:25:20.106Z,13.90
2023-05-05T03:27:49.501Z,13.33
2023-05-05T03:30:20.786Z,12.93
2023-05-05T03:32:51.865Z,12.93
2023-05-05T03:35:20.071Z,13.60
2023-05-05T03:37:49.419Z,14.23
2023-05-05T03:40:18.794Z,11.63
2023-05-05T03:42:46.821Z,12.83
2023-05-05T03:45:14.944Z,12.23
2023-05-05T03:47:42.940Z,13.57
2023-05-05T03:50:11.654Z,14.33
2023-05-05T03:52:40.814Z,13.70
2023-05-05T03:55:10.835Z,12.57
2023-05-05T03:57:38.730Z,13.07
2023-05-05T04:00:11.869Z,13.73
2023-05-05T04:02:45.295Z,14.30
2023-05-05T04:05:15.827Z,14.13
2023-05-05T04:07:44.270Z,13.87
2023-05-05T04:10:13.546Z,14.53
2023-05-05T04:12:41.593Z,15.10
2023-05-05T04:15:10.607Z,14.30
2023-05-05T04:17:38.638Z,14.20
2023-05-05T04:20:08.219Z,13.73
2023-05-05T04:22:36.479Z,14.17
2023-05-05T04:25:04.784Z,15.93
2023-05-05T04:27:34.162Z,14.63
2023-05-05T04:30:02.680Z,15.43
2023-05-05T04:32:32.742Z,16.20
2023-05-05T04:35:00.829Z,15.37
2023-05-05T04:37:29.210Z,16.93
2023-05-05T04:39:58.367Z,16.70
2023-05-05T04:42:26.259Z,15.73
2023-05-05T04:44:55.694Z,16.20
2023-05-05T04:47:24.188Z,17.57
2023-05-05T04:49:52.283Z,15.53
2023-05-05T04:52:38.948Z,16.90
2023-05-05T04:55:09.589Z,15.50
2023-05-05T04:57:37.526Z,19.37
2023-05-05T05:00:08.508Z,15.60
2023-05-05T05:02:37.526Z,15.33
2023-05-05T05:05:06.228Z,19.00
2023-05-05T05:07:34.458Z,16.23
2023-05-05T05:10:03.853Z,17.37
2023-05-05T05:12:32.840Z,16.23
2023-05-05T05:15:00.766Z,15.33
2023-05-05T05:17:30.956Z,15.30
2023-05-05T05:20:01.520Z,15.37
2023-05-05T05:22:31.421Z,16.43
2023-05-05T05:24:59.785Z,16.00
2023-05-05T05:27:27.707Z,16.27
2023-05-05T05:29:57.206Z,17.67
2023-05-05T05:32:26.331Z,15.63
2023-05-05T05:34:55.854Z,15.70
2023-05-05T05:37:23.825Z,15.93
2023-05-05T05:39:54.841Z,15.10
2023-05-05T05:42:24.439Z,14.83
2023-05-05T05:44:52.510Z,15.27
2023-05-05T05:47:20.408Z,14.80
2023-05-05T05:49:48.335Z,14.43
2023-05-05T05:52:17.624Z,15.70
2023-05-05T05:54:45.898Z,13.53
2023-05-05T05:57:13.828Z,13.90
2023-05-05T05:59:41.890Z,13.83
2023-05-05T06:02:10.644Z,13.33
2023-05-05T06:04:38.802Z,12.80
2023-05-05T06:07:06.828Z,12.93
2023-05-05T06:09:36.208Z,12.10
2023-05-05T06:12:04.397Z,11.30
2023-05-05T06:14:32.819Z,13.60
2023-05-05T06:17:00.821Z,10.63
2023-05-05T06:19:30.641Z,12.10
2023-05-05T06:21:58.531Z,13.57
2023-05-05T06:24:26.414Z,10.57
2023-05-05T06:26:55.730Z,11.57
2023-05-05T06:29:23.615Z,10.13
2023-05-05T06:31:51.795Z,10.03
2023-05-05T06:34:19.760Z,10.70
2023-05-05T06:36:47.693Z,10.37
2023-05-05T06:39:16.163Z,9.57
2023-05-05T06:41:44.167Z,8.60
2023-05-05T06:44:13.391Z,8.67
2023-05-05T06:46:43.465Z,8.37
2023-05-05T06:49:11.452Z,8.90
2023-05-05T06:51:40.993Z,8.70
2023-05-05T06:54:10.088Z,11.87
2023-05-05T06:56:37.935Z,9.53
2023-05-05T06:59:05.849Z,8.93
2023-05-05T07:01:35.015Z,10.73
2023-05-05T07:04:02.936Z,13.47
2023-05-05T07:06:31.840Z,9.43
2023-05-05T07:08:59.725Z,8.70
2023-05-05T07:11:27.572Z,8.97
2023-05-05T07:13:55.420Z,8.97
2023-05-05T07:16:23.344Z,8.33
2023-05-05T07:18:52.566Z,8.03
2023-05-05T07:21:20.492Z,9.67
2023-05-05T07:23:48.337Z,7.13
2023-05-05T07:26:16.442Z,8.10
2023-05-05T07:28:44.864Z,8.80
2023-05-05T07:31:12.685Z,6.57
2023-05-05T07:33:40.618Z,19.23
2023-05-05T07:36:10.117Z,7.47
2023-05-05T07:38:38.006Z,11.37
2023-05-05T07:41:06.355Z,6.30
2023-05-05T07:43:34.209Z,7.53
2023-05-05T07:46:02.076Z,6.10
2023-05-05T07:48:30.240Z,6.93
2023-05-05T07:50:58.258Z,6.37
2023-05-05T07:53:27.481Z,7.00
2023-05-05T07:55:55.377Z,6.93
2023-05-05T07:58:23.297Z,5.83
2023-05-05T08:00:51.247Z,5.73
2023-05-05T08:03:20.350Z,6.03
2023-05-05T08:05:49.975Z,7.80
2023-05-05T08:08:19.588Z,7.50
2023-05-05T08:10:48.809Z,8.70
2023-05-05T08:13:16.668Z,7.23
2023-05-05T08:15:45.122Z,8.93
2023-05-05T08:18:13.052Z,6.70
2023-05-05T08:20:40.980Z,9.23
2023-05-05T08:23:08.958Z,5.10
2023-05-05T08:25:36.975Z,3.67
2023-05-05T08:28:06.473Z,6.83
2023-05-05T08:30:34.398Z,5.67
2023-05-05T08:33:02.326Z,5.77
2023-05-05T08:35:30.352Z,5.67
2023-05-05T08:37:59.195Z,4.87
2023-05-05T08:40:32.824Z,4.43
2023-05-05T08:43:00.876Z,5.90
2023-05-05T08:45:31.028Z,5.17
2023-05-05T08:48:01.295Z,4.37
2023-05-05T08:50:30.088Z,3.87
2023-05-05T08:53:10.099Z,4.80
2023-05-05T08:55:46.373Z,5.50
2023-05-05T08:58:16.486Z,7.10
2023-05-05T09:00:46.552Z,4.97
2023-05-05T09:03:15.521Z,5.00
2023-05-05T09:05:44.196Z,4.23
2023-05-05T09:08:12.674Z,4.03
2023-05-05T09:10:42.396Z,4.53
2023-05-05T09:13:10.605Z,3.40
2023-05-05T09:15:38.968Z,3.37
2023-05-05T09:18:11.892Z,3.87
2023-05-05T09:20:41.684Z,3.27
2023-05-05T09:23:11.456Z,3.43
2023-05-05T09:25:40.018Z,3.47
2023-05-05T09:28:12.748Z,3.23
2023-05-05T09:30:42.724Z,2.03
2023-05-05T09:33:12.220Z,3.57
2023-05-05T09:35:50.825Z,3.40
2023-05-05T09:38:18.960Z,3.50
2023-05-05T09:40:48.610Z,5.03
2023-05-05T09:43:17.381Z,5.87
2023-05-05T09:45:45.308Z,5.07
2023-05-05T09:48:27.879Z,4.00
2023-05-05T09:50:56.495Z,4.50
2023-05-05T09:53:25.065Z,2.87
2023-05-05T09:55:56.842Z,2.73
2023-05-05T09:58:25.932Z,4.37
2023-05-05T10:00:54.387Z,2.77
2023-05-05T10:03:22.937Z,5.17
2023-05-05T10:05:54.380Z,3.10
2023-05-05T10:08:24.516Z,4.50
2023-05-05T10:10:54.019Z,3.63
2023-05-05T10:13:23.373Z,4.90
2023-05-05T10:15:52.804Z,5.30
2023-05-05T10:18:22.916Z,4.87
2023-05-05T10:20:58.169Z,4.13
2023-05-05T10:23:32.684Z,3.73
2023-05-05T10:26:03.154Z,4.13
2023-05-05T10:28:33.969Z,5.70
2023-05-05T10:31:10.086Z,2.87
2023-05-05T10:33:55.230Z,4.73
2023-05-05T10:36:26.325Z,4.87
2023-05-05T10:38:57.943Z,5.23
2023-05-05T10:41:26.825Z,4.90
2023-05-05T10:43:57.457Z,4.13
2023-05-05T10:46:27.685Z,6.00
2023-05-05T10:49:03.881Z,7.10
2023-05-05T10:51:42.013Z,6.03
2023-05-05T10:54:17.801Z,6.83
2023-05-05T10:56:46.329Z,7.27
2023-05-05T10:59:42.712Z,6.47
2023-05-05T11:02:23.794Z,3.63
2023-05-05T11:05:15.109Z,4.93
2023-05-05T11:07:46.038Z,5.53
2023-05-05T11:10:15.781Z,4.87
2023-05-05T11:13:23.167Z,6.70
2023-05-05T11:15:52.497Z,5.13
2023-05-05T11:18:31.614Z,5.13
2023-05-05T11:21:16.360Z,6.43
2023-05-05T11:23:50.509Z,6.33
2023-05-05T11:26:39.665Z,5.10
2023-05-05T11:29:08.207Z,4.57
2023-05-05T11:31:36.187Z,2.10
2023-05-05T11:34:27.761Z,2.57
2023-05-05T11:36:59.528Z,1.70
2023-05-05T11:39:38.006Z,4.87
2023-05-05T11:42:26.429Z,1.90
2023-05-05T11:44:54.951Z,2.10
2023-05-05T11:47:29.034Z,2.00
2023-05-05T11:49:57.872Z,2.37
2023-05-05T11:52:27.703Z,2.60
2023-05-05T11:55:02.031Z,2.43
2023-05-05T11:57:30.711Z,2.43
2023-05-05T12:00:01.524Z,2.10
2023-05-05T12:02:31.313Z,3.30
2023-05-05T12:05:00.567Z,2.03
2023-05-05T12:07:29.791Z,3.10
2023-05-05T12:09:59.095Z,2.73
2023-05-05T12:12:38.588Z,2.80
2023-05-05T12:15:08.071Z,2.37
2023-05-05T12:17:39.878Z,2.73
2023-05-05T12:20:09.441Z,2.80
2023-05-05T12:22:37.562Z,3.23
2023-05-05T12:25:08.622Z,2.60
2023-05-05T12:27:36.947Z,3.40
2023-05-05T12:30:16.666Z,4.03
2023-05-05T12:32:45.608Z,4.97
2023-05-05T12:35:14.480Z,3.70
2023-05-05T12:37:43.251Z,4.63
2023-05-05T12:40:44.611Z,4.87
2023-05-05T12:43:29.106Z,5.03
2023-05-05T12:46:09.088Z,3.33
2023-05-05T12:48:39.039Z,3.03
2023-05-05T12:51:20.984Z,4.53
2023-05-05T12:53:50.351Z,4.60
2023-05-05T12:56:35.772Z,4.50
2023-05-05T12:59:06.361Z,4.30
2023-05-05T13:01:34.900Z,3.37
2023-05-05T13:04:07.286Z,2.87
2023-05-05T13:06:35.963Z,2.90
2023-05-05T13:09:04.498Z,2.60
2023-05-05T13:11:36.488Z,2.57
2023-05-05T13:14:06.942Z,3.37
2023-05-05T13:16:34.910Z,2.23
2023-05-05T13:19:02.816Z,2.40
2023-05-05T13:21:30.771Z,2.87
2023-05-05T13:24:08.169Z,2.40
2023-05-05T13:26:46.929Z,2.57
2023-05-05T13:29:16.418Z,2.53
2023-05-05T13:31:44.737Z,2.37
2023-05-05T13:34:13.126Z,2.57
2023-05-05T13:36:40.999Z,2.60
2023-05-05T13:39:09.023Z,3.07
2023-05-05T13:41:36.924Z,3.53
2023-05-05T13:44:04.962Z,4.20
2023-05-05T13:46:34.161Z,3.53
2023-05-05T13:49:02.109Z,4.13
2023-05-05T13:51:30.437Z,3.53
2023-05-05T13:53:58.299Z,3.87
2023-05-05T13:56:27.664Z,3.57
2023-05-05T13:58:55.723Z,5.00
2023-05-05T14:01:23.726Z,4.23
2023-05-05T14:03:54.444Z,5.13
2023-05-05T14:06:23.472Z,6.07
2023-05-05T14:08:51.638Z,5.03
2023-05-05T14:11:20.574Z,5.47
2023-05-05T14:13:48.921Z,6.07
2023-05-05T14:16:16.936Z,5.00
2023-05-05T14:18:44.891Z,4.20
2023-05-05T14:21:14.166Z,4.00
2023-05-05T14:23:42.071Z,3.90
2023-05-05T14:26:09.997Z,4.30
2023-05-05T14:28:37.912Z,3.80
2023-05-05T14:31:06.174Z,3.57
2023-05-05T14:33:34.094Z,3.73
2023-05-05T14:36:01.927Z,2.77
2023-05-05T14:38:31.169Z,2.57
2023-05-05T14:40:59.427Z,2.70
2023-05-05T14:43:27.305Z,2.60
2023-05-05T14:45:55.288Z,4.43
2023-05-05T14:48:23.264Z,2.97
2023-05-05T14:50:51.133Z,2.70
2023-05-05T14:53:19.833Z,3.57
2023-05-05T14:55:49.019Z,4.30
2023-05-05T14:58:18.560Z,3.83
2023-05-05T15:00:46.413Z,2.97
2023-05-05T15:03:14.414Z,3.57
2023-05-05T15:05:42.369Z,5.20
2023-05-05T15:08:10.289Z,3.17
2023-05-05T15:10:38.216Z,3.00
2023-05-05T15:13:07.536Z,3.43
2023-05-05T15:15:35.477Z,3.40
2023-05-05T15:18:03.496Z,2.70
2023-05-05T15:20:31.690Z,3.47
2023-05-05T15:22:59.624Z,3.03
2023-05-05T15:25:27.576Z,3.47
2023-05-05T15:27:55.483Z,2.70
2023-05-05T15:30:24.723Z,2.33
2023-05-05T15:32:52.654Z,2.00
2023-05-05T15:35:20.751Z,2.10
2023-05-05T15:37:48.601Z,2.37
2023-05-05T15:40:16.424Z,2.57
2023-05-05T15:42:44.330Z,1.50
2023-05-05T15:45:12.985Z,1.40
2023-05-05T15:47:42.308Z,1.77
2023-05-05T15:50:10.792Z,1.30
2023-05-05T15:52:38.889Z,1.20
2023-05-05T15:55:07.933Z,1.40
2023-05-05T15:57:36.229Z,1.37
2023-05-05T16:00:04.656Z,2.37
2023-05-05T16:02:35.677Z,2.30
2023-05-05T16:05:05.614Z,1.53
2023-05-05T16:07:33.553Z,1.70
2023-05-05T16:10:01.442Z,1.67
2023-05-05T16:12:29.356Z,2.00
2023-05-05T16:14:57.258Z,1.57
2023-05-05T16:17:25.198Z,1.20
2023-05-05T16:19:53.181Z,1.20
2023-05-05T16:22:22.344Z,1.67
2023-05-05T16:24:50.219Z,1.40
2023-05-05T16:27:18.069Z,1.67
2023-05-05T16:29:46.026Z,1.43
2023-05-05T16:32:13.966Z,1.63
2023-05-05T16:34:41.801Z,1.37
2023-05-05T16:37:09.742Z,1.30
2023-05-05T16:39:40.194Z,1.43
2023-05-05T16:42:08.284Z,4.70
2023-05-05T16:44:36.152Z,1.40
2023-05-05T16:47:04.056Z,1.83
2023-05-05T16:49:31.923Z,2.70
2023-05-05T16:51:59.813Z,2.10
2023-05-05T16:54:27.783Z,1.90
2023-05-05T16:56:58.172Z,3.07
2023-05-05T16:59:26.127Z,4.27
2023-05-05T17:01:54.050Z,3.60
2023-05-05T17:04:21.928Z,1.53
2023-05-05T17:06:49.914Z,1.77
2023-05-05T17:09:17.789Z,1.90
2023-05-05T17:11:45.676Z,3.97
2023-05-05T17:14:14.898Z,1.93
2023-05-05T17:16:42.786Z,1.87
2023-05-05T17:19:10.665Z,1.70
2023-05-05T17:21:38.494Z,3.17
2023-05-05T17:24:08.232Z,2.43
2023-05-05T17:26:36.153Z,2.50
2023-05-05T17:29:04.020Z,2.83
2023-05-05T17:31:33.370Z,2.47
2023-05-05T17:34:01.310Z,2.70
2023-05-05T17:36:29.187Z,2.20
2023-05-05T17:38:57.059Z,2.60
2023-05-05T17:41:25.568Z,3.23
2023-05-05T17:43:53.864Z,3.30
2023-05-05T17:46:32.175Z,3.03
2023-05-05T17:49:00.346Z,3.93
2023-05-05T17:51:28.470Z,3.57
2023-05-05T17:53:56.409Z,3.83
2023-05-05T17:56:24.313Z,11.40
2023-05-05T17:58:52.501Z,11.40
2023-05-05T18:01:23.574Z,7.13
2023-05-05T18:03:53.133Z,4.50
2023-05-05T18:06:21.256Z,4.07
2023-05-05T18:08:49.281Z,5.67
2023-05-05T18:11:17.302Z,3.70
2023-05-05T18:13:45.182Z,4.43
2023-05-05T18:16:13.058Z,4.20
2023-05-05T18:18:41.211Z,4.43
2023-05-05T18:21:12.183Z,3.87
2023-05-05T18:23:40.461Z,4.13
2023-05-05T18:26:09.264Z,4.70
2023-05-05T18:28:37.739Z,4.33
2023-05-05T18:31:06.178Z,4.40
2023-05-05T18:33:34.213Z,5.77
2023-05-05T18:36:04.041Z,5.93
2023-05-05T18:38:33.616Z,5.40
2023-05-05T18:41:01.616Z,5.07
2023-05-05T18:43:29.751Z,4.23
2023-05-05T18:45:57.830Z,4.80
2023-05-05T18:48:26.177Z,5.60
2023-05-05T18:50:54.055Z,5.07
2023-05-05T18:53:22.293Z,5.00
2023-05-05T18:55:51.628Z,4.83
2023-05-05T18:58:19.804Z,4.50
2023-05-05T19:00:47.903Z,4.60
2023-05-05T19:03:16.278Z,5.83
2023-05-05T19:05:44.383Z,4.97
2023-05-05T19:08:12.337Z,5.67
2023-05-05T19:10:40.221Z,7.17
2023-05-05T19:13:10.694Z,5.50
2023-05-05T19:15:38.844Z,5.30
2023-05-05T19:18:06.980Z,6.07
2023-05-05T19:20:35.056Z,5.57
2023-05-05T19:23:04.442Z,5.70
2023-05-05T19:25:33.024Z,5.70
2023-05-05T19:28:01.046Z,6.17
2023-05-05T19:30:31.150Z,6.03
2023-05-05T19:32:59.315Z,6.50
2023-05-05T19:35:27.700Z,8.27
2023-05-05T19:37:56.926Z,6.57
2023-05-05T19:40:25.037Z,8.00
2023-05-05T19:42:52.987Z,6.03
2023-05-05T19:45:20.973Z,6.50
2023-05-05T19:47:50.223Z,6.97
2023-05-05T19:50:18.224Z,6.30
2023-05-05T19:52:46.152Z,7.30
2023-05-05T19:55:14.093Z,6.30
2023-05-05T19:57:42.004Z,6.77
2023-05-05T20:00:11.771Z,6.10
2023-05-05T20:02:40.088Z,6.57
2023-05-05T20:05:13.748Z,6.40
2023-05-05T20:07:42.763Z,6.50
2023-05-05T20:10:13.021Z,7.50
2023-05-05T20:12:47.776Z,6.03
2023-05-05T20:15:18.545Z,7.53
2023-05-05T20:17:47.352Z,6.03
2023-05-05T20:20:20.019Z,7.63
2023-05-05T20:22:49.499Z,6.97
2023-05-05T20:25:17.921Z,7.67
2023-05-05T20:27:46.251Z,6.63
2023-05-05T20:30:14.472Z,7.23
2023-05-05T20:32:42.469Z,7.37
2023-05-05T20:35:12.654Z,7.03
2023-05-05T20:37:44.905Z,7.93
2023-05-05T20:40:13.791Z,7.93
2023-05-05T20:42:41.703Z,7.93
2023-05-05T20:45:11.145Z,7.60
2023-05-05T20:47:39.088Z,7.97
2023-05-05T20:50:08.273Z,7.43
2023-05-05T20:52:36.290Z,9.33
2023-05-05T20:55:06.196Z,9.30
2023-05-05T20:57:34.496Z,9.10
2023-05-05T21:00:02.510Z,12.37
2023-05-05T21:02:31.582Z,8.93
2023-05-05T21:05:02.765Z,8.67
2023-05-05T21:07:31.283Z,9.90
2023-05-05T21:09:59.182Z,9.13
2023-05-05T21:12:29.583Z,8.40
2023-05-05T21:14:58.573Z,8.90
2023-05-05T21:17:26.964Z,7.90
2023-05-05T21:19:55.843Z,9.03
2023-05-05T21:22:23.833Z,8.80
2023-05-05T21:24:52.240Z,9.57
2023-05-05T21:27:20.126Z,9.47
2023-05-05T21:29:51.392Z,9.67
2023-05-05T21:32:19.369Z,9.20
2023-05-05T21:34:47.287Z,9.50
2023-05-05T21:37:15.541Z,9.13
2023-05-05T21:39:43.401Z,9.70
2023-05-05T21:42:11.332Z,9.70
2023-05-05T21:44:39.212Z,9.27
2023-05-05T21:47:08.639Z,10.60
2023-05-05T21:49:36.613Z,9.57
2023-05-05T21:52:04.493Z,9.37
2023-05-05T21:54:32.349Z,10.07
2023-05-05T21:57:00.535Z,9.23
2023-05-05T21:59:28.519Z,10.00
2023-05-05T22:01:56.487Z,10.60
2023-05-05T22:04:25.633Z,10.67
2023-05-05T22:06:53.542Z,10.77
2023-05-05T22:09:21.445Z,11.10
2023-05-05T22:11:49.374Z,10.60
2023-05-05T22:14:17.340Z,10.63
2023-05-05T22:16:45.358Z,9.90
2023-05-05T22:19:13.334Z,9.80
2023-05-05T22:21:42.624Z,10.63
2023-05-05T22:24:10.532Z,11.47
2023-05-05T22:26:39.816Z,11.63
2023-05-05T22:29:07.750Z,12.30
2023-05-05T22:31:35.689Z,11.30
2023-05-05T22:34:03.815Z,11.20
2023-05-05T22:36:32.167Z,10.63
2023-05-05T22:39:01.351Z,12.63
2023-05-05T22:41:29.241Z,11.63
2023-05-05T22:43:57.395Z,11.53
2023-05-05T22:46:25.462Z,11.73
2023-05-05T22:48:54.094Z,13.20
2023-05-05T22:51:22.161Z,13.07
2023-05-05T22:53:50.048Z,13.37
2023-05-05T22:56:19.308Z,13.10
2023-05-05T22:58:47.455Z,12.77
2023-05-05T23:01:15.369Z,14.93
2023-05-05T23:03:43.358Z,13.87
2023-05-05T23:06:11.248Z,13.10
2023-05-05T23:08:39.161Z,11.70
2023-05-05T23:11:07.082Z,13.13
2023-05-05T23:13:36.347Z,15.25
2023-05-05T23:16:04.553Z,14.07
2023-05-05T23:18:32.474Z,14.77
2023-05-05T23:21:00.308Z,14.13
2023-05-05T23:23:28.308Z,15.23
2023-05-05T23:25:56.173Z,14.50
2023-05-05T23:28:24.095Z,16.47
2023-05-05T23:30:53.347Z,14.07
2023-05-05T23:33:21.296Z,13.60
2023-05-05T23:35:49.202Z,15.47
2023-05-05T23:38:17.165Z,13.63
2023-05-05T23:40:45.053Z,13.93
2023-05-05T23:43:12.890Z,12.67
2023-05-05T23:45:40.908Z,15.57
2023-05-05T23:48:10.333Z,13.67
2023-05-05T23:50:38.237Z,12.77
2023-05-05T23:53:06.178Z,13.87
2023-05-05T23:55:34.047Z,15.33
2023-05-05T23:58:01.941Z,15.10
